Time;durP1;ratioP1;P1;durP2;ratioP2;P2;SDS_P1;SDS_P2;PMS_P1;PMS_P2;Temp;Humidity;BMP_temperature;BMP_pressure;BME280_temperature;BME280_humidity;BME280_pressure;Samples;Min_cycle;Max_cycle;Signal;HPM_P1;HPM_P2
2023/06/14 00:00:44;;;;;;;5.25;2.53;;;;;;;;;;5153599;27;20039;-75
2023/06/14 00:03:11;;;;;;;10.73;2.70;;;;;;;;;;5153103;27;20129;-75
2023/06/14 00:05:42;;;;;;;6.50;2.35;;;;;;;;;;5134597;27;20074;-75
2023/06/14 00:08:09;;;;;;;7.25;2.40;;;;;;;;;;5153278;27;20061;-75
2023/06/14 00:10:35;;;;;;;7.68;2.25;;;;;;;;;;5153627;27;20043;-75
2023/06/14 00:13:02;;;;;;;5.43;2.30;;;;;;;;;;5153971;27;20043;-75
2023/06/14 00:15:28;;;;;;;4.78;2.35;;;;;;;;;;5153700;27;20084;-76
2023/06/14 00:17:54;;;;;;;10.57;2.25;;;;;;;;;;5135231;27;20178;-76
2023/06/14 00:20:21;;;;;;;6.90;2.35;;;;;;;;;;5153683;27;20046;-76
2023/06/14 00:22:47;;;;;;;6.85;2.20;;;;;;;;;;5153731;27;20502;-75
2023/06/14 00:25:14;;;;;;;4.45;2.20;;;;;;;;;;5153565;27;20457;-76
2023/06/14 00:27:40;;;;;;;4.45;2.17;;;;;;;;;;5153816;27;20038;-75
2023/06/14 00:30:06;;;;;;;5.43;2.17;;;;;;;;;;5134939;27;20074;-76
2023/06/14 00:32:32;;;;;;;7.10;2.40;;;;;;;;;;5117934;27;20054;-75
2023/06/14 00:34:58;;;;;;;6.28;2.33;;;;;;;;;;5153617;27;20444;-76
2023/06/14 00:37:24;;;;;;;5.97;2.47;;;;;;;;;;5135127;27;20035;-75
2023/06/14 00:39:50;;;;;;;4.55;2.20;;;;;;;;;;5153137;27;20045;-75
2023/06/14 00:42:26;;;;;;;4.45;2.20;;;;;;;;;;5135520;27;20043;-75
2023/06/14 00:44:52;;;;;;;5.05;2.17;;;;;;;;;;5153272;27;20450;-75
2023/06/14 00:47:19;;;;;;;4.95;2.20;;;;;;;;;;5137762;27;20043;-75
2023/06/14 00:49:46;;;;;;;3.42;2.20;;;;;;;;;;5156584;27;20042;-75
2023/06/14 00:52:14;;;;;;;4.50;2.25;;;;;;;;;;5157413;27;20042;-75
2023/06/14 00:54:43;;;;;;;5.30;2.22;;;;;;;;;;5157206;27;20076;-75
2023/06/14 00:57:10;;;;;;;5.22;2.20;;;;;;;;;;5138674;27;20095;-75
2023/06/14 00:59:43;;;;;;;6.75;2.20;;;;;;;;;;5157375;27;20390;-76
2023/06/14 01:02:09;;;;;;;5.43;2.10;;;;;;;;;;5157512;27;20442;-75
2023/06/14 01:04:36;;;;;;;4.82;2.00;;;;;;;;;;5157348;27;20433;-75
2023/06/14 01:07:14;;;;;;;5.63;1.90;;;;;;;;;;5157094;27;20188;-75
2023/06/14 01:09:58;;;;;;;4.32;2.10;;;;;;;;;;5141954;27;20126;-75
2023/06/14 01:12:24;;;;;;;3.30;1.95;;;;;;;;;;5136612;27;20043;-75
2023/06/14 01:14:51;;;;;;;5.78;1.98;;;;;;;;;;5147706;27;20038;-75
2023/06/14 01:17:18;;;;;;;5.03;2.00;;;;;;;;;;5138434;27;20577;-75
2023/06/14 01:19:44;;;;;;;5.82;2.10;;;;;;;;;;5138064;27;20049;-75
2023/06/14 01:22:10;;;;;;;5.82;2.05;;;;;;;;;;5138652;27;20129;-75
2023/06/14 01:24:39;;;;;;;4.07;2.05;;;;;;;;;;5138205;27;20098;-76
2023/06/14 01:27:07;;;;;;;5.43;2.20;;;;;;;;;;5156956;27;20050;-76
2023/06/14 01:29:33;;;;;;;3.30;2.00;;;;;;;;;;5137731;27;20042;-76
2023/06/14 01:32:00;;;;;;;6.15;2.20;;;;;;;;;;5138097;27;20053;-76
2023/06/14 01:34:26;;;;;;;4.85;2.20;;;;;;;;;;5156513;27;20035;-76
2023/06/14 01:36:54;;;;;;;9.02;2.30;;;;;;;;;;5156752;27;20067;-76
2023/06/14 01:39:21;;;;;;;5.43;2.20;;;;;;;;;;5118903;27;20096;-76
2023/06/14 01:41:48;;;;;;;5.05;2.28;;;;;;;;;;5135865;27;20039;-76
2023/06/14 01:44:15;;;;;;;6.43;2.22;;;;;;;;;;5135532;27;20046;-76
2023/06/14 01:46:41;;;;;;;5.75;2.10;;;;;;;;;;5134454;27;20051;-76
2023/06/14 01:49:08;;;;;;;4.80;1.98;;;;;;;;;;5134635;27;20039;-76
2023/06/14 01:51:35;;;;;;;5.72;2.17;;;;;;;;;;5156370;27;20039;-76
2023/06/14 01:54:01;;;;;;;4.70;2.00;;;;;;;;;;5156281;27;20353;-76
2023/06/14 01:56:27;;;;;;;5.10;2.45;;;;;;;;;;5155999;27;20089;-76
2023/06/14 01:58:54;;;;;;;3.65;2.20;;;;;;;;;;5156081;27;20050;-76
2023/06/14 02:01:21;;;;;;;4.80;2.17;;;;;;;;;;5137234;27;20084;-76
2023/06/14 02:03:48;;;;;;;6.43;2.35;;;;;;;;;;5154724;27;20043;-76
2023/06/14 02:06:15;;;;;;;4.07;2.13;;;;;;;;;;5156118;27;20107;-76
2023/06/14 02:08:42;;;;;;;7.13;2.20;;;;;;;;;;5155609;27;20495;-76
2023/06/14 02:11:08;;;;;;;5.22;2.28;;;;;;;;;;5137122;27;20051;-76
2023/06/14 02:13:34;;;;;;;4.60;2.20;;;;;;;;;;5119926;27;20099;-76
2023/06/14 02:16:01;;;;;;;7.07;2.40;;;;;;;;;;5155686;27;20212;-76
2023/06/14 02:18:27;;;;;;;4.22;2.10;;;;;;;;;;5155375;27;20046;-76
2023/06/14 02:20:53;;;;;;;6.55;2.50;;;;;;;;;;5155558;27;20039;-76
2023/06/14 02:23:20;;;;;;;5.28;2.40;;;;;;;;;;5155503;27;20045;-76
2023/06/14 02:25:46;;;;;;;5.18;2.13;;;;;;;;;;5137213;27;20042;-76
2023/06/14 02:28:12;;;;;;;6.82;2.60;;;;;;;;;;5155522;27;20073;-77
2023/06/14 02:30:39;;;;;;;5.00;2.50;;;;;;;;;;5155544;27;20099;-76
2023/06/14 02:33:05;;;;;;;6.75;2.40;;;;;;;;;;5136768;27;20051;-76
2023/06/14 02:35:31;;;;;;;6.25;2.50;;;;;;;;;;5155670;27;20043;-76
2023/06/14 02:37:57;;;;;;;4.60;2.40;;;;;;;;;;5155088;27;20091;-76
2023/06/14 02:40:23;;;;;;;5.82;2.40;;;;;;;;;;5154643;27;20043;-76
2023/06/14 02:42:50;;;;;;;6.90;2.55;;;;;;;;;;5155106;27;20043;-76
2023/06/14 02:45:16;;;;;;;9.43;2.60;;;;;;;;;;5136722;27;20103;-76
2023/06/14 02:47:42;;;;;;;4.25;2.20;;;;;;;;;;5136139;27;20092;-77
2023/06/14 02:50:09;;;;;;;7.50;2.60;;;;;;;;;;5136546;27;20098;-76
2023/06/14 02:52:35;;;;;;;6.40;2.25;;;;;;;;;;5154431;27;20053;-76
2023/06/14 02:55:01;;;;;;;5.15;2.33;;;;;;;;;;5153054;27;20058;-76
2023/06/14 02:57:27;;;;;;;4.45;2.50;;;;;;;;;;5153027;27;20045;-76
2023/06/14 02:59:53;;;;;;;7.40;2.60;;;;;;;;;;5154231;27;20491;-76
2023/06/14 03:02:19;;;;;;;5.07;2.63;;;;;;;;;;5155209;27;20440;-76
2023/06/14 03:04:46;;;;;;;5.80;2.63;;;;;;;;;;5154596;27;20092;-76
2023/06/14 03:07:12;;;;;;;6.07;2.67;;;;;;;;;;5154297;27;20061;-77
2023/06/14 03:09:39;;;;;;;6.63;2.63;;;;;;;;;;5136289;27;20049;-76
2023/06/14 03:12:09;;;;;;;6.82;2.53;;;;;;;;;;5136203;27;20091;-76
2023/06/14 03:14:36;;;;;;;5.10;2.33;;;;;;;;;;5154725;27;20038;-76
2023/06/14 03:17:04;;;;;;;7.47;2.45;;;;;;;;;;5136088;27;20050;-76
2023/06/14 03:19:30;;;;;;;5.43;2.40;;;;;;;;;;5135573;27;20054;-76
2023/06/14 03:21:57;;;;;;;6.32;2.78;;;;;;;;;;5136430;27;20154;-76
2023/06/14 03:24:24;;;;;;;7.18;2.80;;;;;;;;;;5154204;27;20042;-76
2023/06/14 03:26:50;;;;;;;7.63;2.92;;;;;;;;;;5136074;27;20190;-76
2023/06/14 03:29:16;;;;;;;5.97;2.78;;;;;;;;;;5154209;27;20042;-76
2023/06/14 03:31:57;;;;;;;5.65;2.58;;;;;;;;;;5135540;27;20065;-76
2023/06/14 03:34:23;;;;;;;7.93;2.58;;;;;;;;;;5154472;27;20153;-76
2023/06/14 03:36:49;;;;;;;4.75;2.60;;;;;;;;;;5135991;27;20130;-76
2023/06/14 03:39:15;;;;;;;6.65;2.70;;;;;;;;;;5135608;27;20039;-76
2023/06/14 03:41:41;;;;;;;7.80;2.83;;;;;;;;;;5135517;27;20073;-76
2023/06/14 03:44:07;;;;;;;5.50;2.97;;;;;;;;;;5153990;27;20096;-76
2023/06/14 03:46:33;;;;;;;5.38;2.72;;;;;;;;;;5154054;27;20035;-76
2023/06/14 03:49:00;;;;;;;4.40;2.58;;;;;;;;;;5134296;27;20095;-76
2023/06/14 03:51:26;;;;;;;4.15;2.42;;;;;;;;;;5135745;27;20083;-76
2023/06/14 03:53:52;;;;;;;4.70;2.72;;;;;;;;;;5154026;27;20042;-76
2023/06/14 03:56:18;;;;;;;6.82;2.80;;;;;;;;;;5154035;27;20045;-76
2023/06/14 03:58:45;;;;;;;5.20;2.67;;;;;;;;;;5153953;27;20042;-76
2023/06/14 04:01:12;;;;;;;7.07;2.65;;;;;;;;;;5153896;27;20069;-76
2023/06/14 04:03:40;;;;;;;5.70;2.72;;;;;;;;;;5154069;27;20095;-76
2023/06/14 04:06:07;;;;;;;7.18;2.83;;;;;;;;;;5117836;27;20146;-76
2023/06/14 04:08:34;;;;;;;6.70;2.55;;;;;;;;;;5152056;27;20415;-76
2023/06/14 04:11:00;;;;;;;7.15;2.85;;;;;;;;;;5153719;27;20049;-76
2023/06/14 04:13:27;;;;;;;7.30;3.00;;;;;;;;;;5153853;27;20039;-76
2023/06/14 04:15:53;;;;;;;12.38;3.35;;;;;;;;;;5153778;27;20459;-76
2023/06/14 04:18:20;;;;;;;6.10;3.05;;;;;;;;;;5153749;27;20042;-76
2023/06/14 04:20:46;;;;;;;9.27;3.35;;;;;;;;;;5157362;27;20121;-76
2023/06/14 04:23:14;;;;;;;5.03;2.80;;;;;;;;;;5139359;27;20080;-76
2023/06/14 04:25:40;;;;;;;7.00;2.83;;;;;;;;;;5158045;27;20126;-76
2023/06/14 04:28:08;;;;;;;11.82;3.00;;;;;;;;;;5157936;27;20079;-76
2023/06/14 04:30:35;;;;;;;4.97;2.75;;;;;;;;;;5157503;27;20066;-76
2023/06/14 04:33:05;;;;;;;7.15;3.10;;;;;;;;;;5157745;27;20042;-76
2023/06/14 04:35:32;;;;;;;7.18;2.88;;;;;;;;;;5139158;27;20051;-76
2023/06/14 04:37:59;;;;;;;6.97;3.30;;;;;;;;;;5157828;27;20057;-76
2023/06/14 04:40:25;;;;;;;4.53;3.00;;;;;;;;;;5138948;27;20069;-76
2023/06/14 04:42:52;;;;;;;5.13;3.10;;;;;;;;;;5138828;27;20047;-76
2023/06/14 04:45:19;;;;;;;7.45;3.20;;;;;;;;;;5121670;27;20121;-76
2023/06/14 04:47:46;;;;;;;6.72;3.03;;;;;;;;;;5138841;27;20149;-77
2023/06/14 04:50:12;;;;;;;6.43;3.30;;;;;;;;;;5121805;27;20106;-75
2023/06/14 04:52:39;;;;;;;7.53;3.17;;;;;;;;;;5157509;27;20100;-75
2023/06/14 04:55:05;;;;;;;6.50;2.97;;;;;;;;;;5157017;27;20065;-75
2023/06/14 04:57:32;;;;;;;6.78;3.13;;;;;;;;;;5157716;27;20468;-75
2023/06/14 05:00:00;;;;;;;7.32;3.33;;;;;;;;;;5156775;27;20043;-75
2023/06/14 05:02:27;;;;;;;6.43;3.20;;;;;;;;;;5157257;27;20051;-75
2023/06/14 05:04:57;;;;;;;7.32;3.28;;;;;;;;;;5156103;27;20034;-75
2023/06/14 05:07:23;;;;;;;6.00;3.47;;;;;;;;;;5156483;27;20058;-75
2023/06/14 05:09:50;;;;;;;6.82;3.78;;;;;;;;;;5138388;27;20043;-75
2023/06/14 05:12:19;;;;;;;6.32;3.60;;;;;;;;;;5156925;27;20049;-76
2023/06/14 05:14:45;;;;;;;8.60;3.80;;;;;;;;;;5156795;27;20081;-75
2023/06/14 05:17:11;;;;;;;6.82;3.65;;;;;;;;;;5138327;27;20043;-76
2023/06/14 05:19:38;;;;;;;7.18;3.58;;;;;;;;;;5156605;27;20085;-76
2023/06/14 05:22:04;;;;;;;7.90;3.47;;;;;;;;;;5156762;27;20479;-75
2023/06/14 05:24:30;;;;;;;9.18;3.90;;;;;;;;;;5156601;27;20038;-75
2023/06/14 05:26:56;;;;;;;8.70;4.32;;;;;;;;;;5156783;27;20046;-75
2023/06/14 05:29:23;;;;;;;8.38;4.10;;;;;;;;;;5156237;27;20467;-76
2023/06/14 05:31:49;;;;;;;7.20;4.00;;;;;;;;;;5155729;27;20043;-76
2023/06/14 05:34:15;;;;;;;8.75;4.05;;;;;;;;;;5155614;27;20380;-76
2023/06/14 05:36:41;;;;;;;7.50;3.95;;;;;;;;;;5120536;27;20234;-76
2023/06/14 05:39:08;;;;;;;6.82;3.83;;;;;;;;;;5120432;27;20038;-76
2023/06/14 05:41:34;;;;;;;8.77;4.13;;;;;;;;;;5156228;27;20094;-76
2023/06/14 05:44:00;;;;;;;7.93;3.90;;;;;;;;;;5156034;27;20134;-76
2023/06/14 05:46:26;;;;;;;6.32;3.60;;;;;;;;;;5156241;27;20135;-76
2023/06/14 05:48:53;;;;;;;10.88;4.20;;;;;;;;;;5137022;27;20046;-76
2023/06/14 05:51:19;;;;;;;5.40;3.70;;;;;;;;;;5156008;27;20497;-76
2023/06/14 05:53:46;;;;;;;7.80;3.70;;;;;;;;;;5156025;27;20129;-76
2023/06/14 05:56:12;;;;;;;6.88;3.70;;;;;;;;;;5156101;27;20039;-76
2023/06/14 05:58:38;;;;;;;7.80;4.05;;;;;;;;;;5137489;27;20051;-76
2023/06/14 06:01:04;;;;;;;8.35;3.95;;;;;;;;;;5153829;27;20121;-76
2023/06/14 06:03:30;;;;;;;7.38;4.00;;;;;;;;;;5155654;27;20045;-76
2023/06/14 06:05:56;;;;;;;7.43;3.80;;;;;;;;;;5137223;27;20038;-76
2023/06/14 06:08:23;;;;;;;6.40;3.63;;;;;;;;;;5137177;27;20077;-76
2023/06/14 06:10:49;;;;;;;10.15;4.18;;;;;;;;;;5155622;27;20384;-76
2023/06/14 06:13:15;;;;;;;7.78;3.80;;;;;;;;;;5155595;27;20547;-76
2023/06/14 06:15:41;;;;;;;9.82;4.30;;;;;;;;;;5155591;27;20046;-77
2023/06/14 06:18:07;;;;;;;8.18;3.95;;;;;;;;;;5136774;27;20042;-75
2023/06/14 06:20:34;;;;;;;5.25;3.42;;;;;;;;;;5136806;27;20516;-75
2023/06/14 06:23:00;;;;;;;9.30;4.20;;;;;;;;;;5153275;27;20046;-75
2023/06/14 06:25:27;;;;;;;7.95;3.70;;;;;;;;;;5134531;27;20039;-75
2023/06/14 06:27:53;;;;;;;7.18;3.50;;;;;;;;;;5134550;27;20551;-75
2023/06/14 06:30:20;;;;;;;5.40;3.35;;;;;;;;;;5134112;27;20042;-75
2023/06/14 06:32:47;;;;;;;7.70;3.58;;;;;;;;;;5134326;27;20476;-75
2023/06/14 06:35:13;;;;;;;13.77;4.03;;;;;;;;;;5115919;27;20484;-75
2023/06/14 06:37:39;;;;;;;7.68;3.70;;;;;;;;;;5134620;27;20529;-75
2023/06/14 06:40:07;;;;;;;5.68;3.30;;;;;;;;;;5134375;27;20045;-76
2023/06/14 06:42:33;;;;;;;7.90;3.60;;;;;;;;;;5133555;27;20043;-75
2023/06/14 06:44:59;;;;;;;6.13;3.40;;;;;;;;;;5133889;27;20166;-75
2023/06/14 06:47:25;;;;;;;7.80;3.17;;;;;;;;;;5133954;27;20047;-75
2023/06/14 06:49:51;;;;;;;8.52;3.30;;;;;;;;;;5142850;27;20042;-75
2023/06/14 06:52:18;;;;;;;4.72;3.00;;;;;;;;;;5135376;27;20081;-75
2023/06/14 06:54:44;;;;;;;5.75;3.15;;;;;;;;;;5153876;27;20398;-75
2023/06/14 06:57:10;;;;;;;8.82;3.42;;;;;;;;;;5154807;27;20043;-76
2023/06/14 06:59:37;;;;;;;9.13;3.45;;;;;;;;;;5154392;27;20118;-76
2023/06/14 07:02:04;;;;;;;6.25;2.90;;;;;;;;;;5153832;27;20049;-76
2023/06/14 07:04:31;;;;;;;8.40;3.42;;;;;;;;;;5152798;27;20039;-76
2023/06/14 07:06:57;;;;;;;6.75;3.03;;;;;;;;;;5135353;27;20394;-76
2023/06/14 07:09:24;;;;;;;6.22;2.90;;;;;;;;;;5119068;27;20376;-76
2023/06/14 07:11:50;;;;;;;5.90;2.85;;;;;;;;;;5154531;27;20043;-76
2023/06/14 07:14:17;;;;;;;9.63;3.30;;;;;;;;;;5153423;27;20050;-76
2023/06/14 07:16:43;;;;;;;7.90;2.90;;;;;;;;;;5154391;27;20050;-76
2023/06/14 07:19:10;;;;;;;6.68;2.92;;;;;;;;;;5136167;27;20411;-76
2023/06/14 07:21:39;;;;;;;7.68;2.70;;;;;;;;;;5154710;27;20095;-76
2023/06/14 07:24:09;;;;;;;6.15;3.05;;;;;;;;;;5154624;27;20047;-77
2023/06/14 07:26:35;;;;;;;9.13;3.00;;;;;;;;;;5136449;27;20413;-77
2023/06/14 07:29:02;;;;;;;9.50;2.92;;;;;;;;;;5135727;27;20042;-76
2023/06/14 07:31:28;;;;;;;6.35;2.60;;;;;;;;;;5154084;27;20126;-75
2023/06/14 07:33:54;;;;;;;4.65;2.47;;;;;;;;;;5135910;27;20051;-75
2023/06/14 07:36:20;;;;;;;5.85;2.70;;;;;;;;;;5136463;27;20084;-75
2023/06/14 07:38:46;;;;;;;8.93;2.53;;;;;;;;;;5153992;27;20061;-75
2023/06/14 07:41:13;;;;;;;5.88;2.78;;;;;;;;;;5154279;27;20035;-76
2023/06/14 07:43:39;;;;;;;7.32;2.90;;;;;;;;;;5154475;27;20347;-76
2023/06/14 07:46:05;;;;;;;6.22;3.05;;;;;;;;;;5135796;27;20095;-76
2023/06/14 07:48:31;;;;;;;7.03;2.65;;;;;;;;;;5135750;27;20051;-76
2023/06/14 07:50:58;;;;;;;8.40;2.85;;;;;;;;;;5135241;27;20075;-76
2023/06/14 07:53:25;;;;;;;6.97;2.47;;;;;;;;;;5133732;27;20039;-76
2023/06/14 07:55:52;;;;;;;5.45;2.63;;;;;;;;;;5153624;27;20084;-76
2023/06/14 07:58:18;;;;;;;5.63;2.67;;;;;;;;;;5153969;27;20111;-76
2023/06/14 08:00:44;;;;;;;6.00;2.50;;;;;;;;;;5152020;27;20394;-76
2023/06/14 08:03:10;;;;;;;4.75;2.50;;;;;;;;;;5135374;27;20502;-76
2023/06/14 08:05:36;;;;;;;5.25;2.63;;;;;;;;;;5154145;27;20030;-76
2023/06/14 08:08:02;;;;;;;5.28;2.80;;;;;;;;;;5135057;27;20097;-76
2023/06/14 08:10:28;;;;;;;4.90;2.58;;;;;;;;;;5153529;27;20409;-76
2023/06/14 08:12:54;;;;;;;7.50;2.70;;;;;;;;;;5153734;27;20125;-76
2023/06/14 08:15:21;;;;;;;4.97;2.47;;;;;;;;;;5134914;27;20130;-76
2023/06/14 08:17:47;;;;;;;6.38;2.55;;;;;;;;;;5153897;27;20078;-77
2023/06/14 08:20:16;;;;;;;9.82;2.40;;;;;;;;;;5117690;27;20100;-77
2023/06/14 08:22:42;;;;;;;4.47;2.75;;;;;;;;;;5152850;27;20483;-76
2023/06/14 08:25:09;;;;;;;6.35;2.97;;;;;;;;;;5116591;27;20046;-77
2023/06/14 08:27:35;;;;;;;5.93;2.72;;;;;;;;;;5153457;27;20478;-77
2023/06/14 08:30:02;;;;;;;6.40;2.60;;;;;;;;;;5153468;27;20047;-76
2023/06/14 08:32:29;;;;;;;7.10;2.58;;;;;;;;;;5135354;27;20042;-77
2023/06/14 08:34:55;;;;;;;7.20;2.60;;;;;;;;;;5153595;27;20034;-76
2023/06/14 08:37:21;;;;;;;4.80;2.67;;;;;;;;;;5153609;27;20123;-76
2023/06/14 08:39:47;;;;;;;4.63;2.50;;;;;;;;;;5133930;27;20035;-76
2023/06/14 08:42:14;;;;;;;4.70;2.33;;;;;;;;;;5151915;27;20501;-75
2023/06/14 08:44:41;;;;;;;4.65;2.40;;;;;;;;;;5152865;27;20046;-76
2023/06/14 08:47:08;;;;;;;4.90;2.33;;;;;;;;;;5153430;27;20035;-75
2023/06/14 08:49:36;;;;;;;8.27;2.47;;;;;;;;;;5153313;27;20368;-76
2023/06/14 08:52:03;;;;;;;4.25;2.40;;;;;;;;;;5153608;27;20054;-76
2023/06/14 08:54:30;;;;;;;5.50;2.50;;;;;;;;;;5135123;27;20440;-77
2023/06/14 08:57:00;;;;;;;5.68;2.45;;;;;;;;;;5117803;27;20037;-77
2023/06/14 08:59:31;;;;;;;6.13;2.53;;;;;;;;;;5153219;27;20043;-76
2023/06/14 09:01:57;;;;;;;5.88;2.40;;;;;;;;;;5153447;27;20483;-77
2023/06/14 09:04:29;;;;;;;9.90;2.53;;;;;;;;;;5153604;27;20042;-77
2023/06/14 09:06:55;;;;;;;6.30;2.50;;;;;;;;;;5156940;27;20129;-77
2023/06/14 09:09:25;;;;;;;4.22;2.25;;;;;;;;;;5157115;27;20106;-77
2023/06/14 09:11:52;;;;;;;6.47;2.65;;;;;;;;;;5156930;27;20039;-77
2023/06/14 09:14:22;;;;;;;6.70;2.55;;;;;;;;;;5138351;27;20142;-76
2023/06/14 09:16:48;;;;;;;6.95;2.63;;;;;;;;;;5157056;27;20063;-76
2023/06/14 09:19:26;;;;;;;9.05;2.95;;;;;;;;;;5120995;27;20046;-76
2023/06/14 09:21:53;;;;;;;8.40;2.70;;;;;;;;;;5156979;27;20102;-77
2023/06/14 09:24:19;;;;;;;6.97;2.38;;;;;;;;;;5137960;27;20114;-77
2023/06/14 09:26:48;;;;;;;7.10;2.60;;;;;;;;;;5121549;27;20047;-77
2023/06/14 09:29:16;;;;;;;5.80;2.63;;;;;;;;;;5156911;27;20043;-77
2023/06/14 09:31:43;;;;;;;5.50;2.60;;;;;;;;;;5156663;27;20035;-77
2023/06/14 09:34:09;;;;;;;7.72;2.72;;;;;;;;;;5156894;27;20065;-76
2023/06/14 09:36:36;;;;;;;4.30;2.40;;;;;;;;;;5138287;27;20397;-77
2023/06/14 09:39:07;;;;;;;7.90;2.50;;;;;;;;;;5156770;27;20046;-77
2023/06/14 09:41:34;;;;;;;7.18;2.70;;;;;;;;;;5137912;27;20038;-77
2023/06/14 09:44:02;;;;;;;7.75;2.60;;;;;;;;;;5138055;27;20047;-77
2023/06/14 09:46:31;;;;;;;3.97;2.28;;;;;;;;;;5137520;27;20053;-76
2023/06/14 09:48:58;;;;;;;6.32;3.00;;;;;;;;;;5136646;27;20066;-77
2023/06/14 09:51:25;;;;;;;5.72;2.40;;;;;;;;;;5156198;27;20081;-77
2023/06/14 09:53:51;;;;;;;6.03;2.65;;;;;;;;;;5156123;27;20140;-77
2023/06/14 09:56:38;;;;;;;5.25;2.50;;;;;;;;;;5156027;27;20068;-77
2023/06/14 09:59:09;;;;;;;8.55;2.40;;;;;;;;;;5155333;27;20092;-77
2023/06/14 10:01:36;;;;;;;7.20;2.67;;;;;;;;;;5155083;27;20121;-77
2023/06/14 10:04:06;;;;;;;7.40;2.30;;;;;;;;;;5137287;27;20095;-77
2023/06/14 10:06:32;;;;;;;4.72;2.20;;;;;;;;;;5120391;27;20157;-77
2023/06/14 10:09:00;;;;;;;3.72;2.30;;;;;;;;;;5137185;27;20055;-77
2023/06/14 10:11:27;;;;;;;3.97;2.22;;;;;;;;;;5155410;27;20035;-77
2023/06/14 10:13:54;;;;;;;4.50;2.22;;;;;;;;;;5153484;27;20086;-77
2023/06/14 10:16:24;;;;;;;6.75;2.33;;;;;;;;;;5154697;27;20129;-77
2023/06/14 10:18:51;;;;;;;5.28;2.40;;;;;;;;;;5155776;27;20089;-78
2023/06/14 10:21:29;;;;;;;6.82;2.58;;;;;;;;;;5120018;27;20452;-76
2023/06/14 10:23:57;;;;;;;4.13;2.35;;;;;;;;;;5155364;27;20050;-77
2023/06/14 10:26:23;;;;;;;5.13;2.40;;;;;;;;;;5155675;27;20039;-77
2023/06/14 10:29:01;;;;;;;5.63;2.13;;;;;;;;;;5137419;27;20043;-77
2023/06/14 10:31:45;;;;;;;7.47;2.33;;;;;;;;;;5134557;27;20047;-77
2023/06/14 10:34:30;;;;;;;5.50;2.15;;;;;;;;;;5152638;27;20058;-77
2023/06/14 10:37:06;;;;;;;7.45;2.30;;;;;;;;;;5155476;27;20078;-77
2023/06/14 10:39:33;;;;;;;5.43;2.50;;;;;;;;;;5155365;27;20084;-76
2023/06/14 10:42:04;;;;;;;9.32;2.60;;;;;;;;;;5135800;27;20107;-77
2023/06/14 10:44:30;;;;;;;5.13;2.40;;;;;;;;;;5155176;27;20068;-76
2023/06/14 10:46:58;;;;;;;5.95;2.58;;;;;;;;;;5155397;27;20099;-77
2023/06/14 10:49:44;;;;;;;7.05;2.40;;;;;;;;;;5155277;27;20038;-77
2023/06/14 10:52:28;;;;;;;;;;;;;;;;;;5155494;27;20047;-76
2023/06/14 10:55:10;;;;;;;6.07;2.42;;;;;;;;;;5154553;27;19926;-77
2023/06/14 10:57:38;;;;;;;5.65;2.30;;;;;;;;;;5155577;27;20376;-76
2023/06/14 11:00:15;;;;;;;5.88;2.20;;;;;;;;;;5136394;27;20376;-76
2023/06/14 11:03:00;;;;;;;6.85;2.45;;;;;;;;;;5135383;27;20099;-76
2023/06/14 11:05:27;;;;;;;8.07;2.40;;;;;;;;;;5154851;27;20402;-77
2023/06/14 11:07:53;;;;;;;5.75;2.35;;;;;;;;;;5135710;27;20503;-76
2023/06/14 11:10:38;;;;;;;6.65;2.10;;;;;;;;;;5134624;27;20178;-77
2023/06/14 11:13:04;;;;;;;3.25;2.10;;;;;;;;;;5154896;27;20487;-77
2023/06/14 11:15:31;;;;;;;4.40;2.08;;;;;;;;;;5154684;27;20133;-77
2023/06/14 11:18:00;;;;;;;4.25;2.42;;;;;;;;;;5136262;27;20073;-77
2023/06/14 11:20:27;;;;;;;5.03;1.90;;;;;;;;;;5153167;27;20035;-78
2023/06/14 11:22:53;;;;;;;4.57;2.08;;;;;;;;;;5135947;27;20487;-77
2023/06/14 11:25:19;;;;;;;5.07;1.83;;;;;;;;;;5154089;27;20047;-76
2023/06/14 11:27:46;;;;;;;6.47;2.13;;;;;;;;;;5133845;27;20053;-78
2023/06/14 11:30:13;;;;;;;4.78;1.75;;;;;;;;;;5133246;27;20038;-78
2023/06/14 11:32:40;;;;;;;7.50;1.90;;;;;;;;;;5154346;27;20134;-78
2023/06/14 11:35:07;;;;;;;8.25;1.80;;;;;;;;;;5135927;27;20043;-77
2023/06/14 11:37:34;;;;;;;7.90;1.70;;;;;;;;;;5154798;27;20125;-76
2023/06/14 11:40:00;;;;;;;4.80;1.63;;;;;;;;;;5154254;27;20042;-77
2023/06/14 11:42:29;;;;;;;2.90;1.60;;;;;;;;;;5154264;27;20048;-76
2023/06/14 11:44:56;;;;;;;4.93;2.03;;;;;;;;;;5154091;27;20173;-78
2023/06/14 11:47:22;;;;;;;3.28;1.42;;;;;;;;;;5135860;27;20110;-77
2023/06/14 11:49:49;;;;;;;3.92;1.60;;;;;;;;;;5153978;27;20091;-78
2023/06/14 11:52:15;;;;;;;3.10;1.40;;;;;;;;;;5154343;27;20081;-76
2023/06/14 11:54:42;;;;;;;3.90;1.42;;;;;;;;;;5154235;27;20046;-76
2023/06/14 11:57:08;;;;;;;3.40;1.52;;;;;;;;;;5154173;27;20043;-77
2023/06/14 11:59:44;;;;;;;4.55;1.60;;;;;;;;;;5154037;27;20038;-76
2023/06/14 12:02:10;;;;;;;5.57;1.80;;;;;;;;;;5153904;27;20043;-77
2023/06/14 12:04:36;;;;;;;5.93;1.60;;;;;;;;;;5154255;27;20042;-76
2023/06/14 12:07:15;;;;;;;5.78;1.60;;;;;;;;;;5135205;27;20049;-77
2023/06/14 12:09:59;;;;;;;3.90;1.48;;;;;;;;;;5153774;27;20078;-76
2023/06/14 12:12:26;;;;;;;4.45;1.60;;;;;;;;;;5135185;27;20050;-77
2023/06/14 12:14:52;;;;;;;2.92;1.52;;;;;;;;;;5153575;27;20078;-77
2023/06/14 12:17:19;;;;;;;5.07;1.67;;;;;;;;;;5154181;27;20074;-79
2023/06/14 12:19:46;;;;;;;5.03;2.00;;;;;;;;;;5153950;27;20045;-76
2023/06/14 12:22:13;;;;;;;2.55;1.45;;;;;;;;;;5153970;27;20121;-77
2023/06/14 12:24:43;;;;;;;4.70;1.52;;;;;;;;;;5153720;27;20101;-77
2023/06/14 12:27:11;;;;;;;5.95;1.85;;;;;;;;;;5153940;27;20039;-76
2023/06/14 12:29:37;;;;;;;2.13;1.60;;;;;;;;;;5153485;27;20046;-76
2023/06/14 12:32:03;;;;;;;4.07;1.70;;;;;;;;;;5153636;27;20121;-76
2023/06/14 12:34:30;;;;;;;36.00;2.92;;;;;;;;;;5135046;27;20475;-77
2023/06/14 12:36:57;;;;;;;13.55;2.08;;;;;;;;;;5152094;27;20531;-77
2023/06/14 12:39:24;;;;;;;1.95;1.45;;;;;;;;;;5153080;27;20043;-77
2023/06/14 12:41:50;;;;;;;5.25;1.70;;;;;;;;;;5139027;27;20046;-77
2023/06/14 12:44:16;;;;;;;2.97;1.65;;;;;;;;;;5157790;27;20031;-77
2023/06/14 12:46:43;;;;;;;6.78;1.85;;;;;;;;;;5157606;27;20051;-78
2023/06/14 12:49:13;;;;;;;3.88;1.60;;;;;;;;;;5121950;27;20046;-77
2023/06/14 12:51:40;;;;;;;4.43;1.85;;;;;;;;;;5139363;27;20095;-77
2023/06/14 12:54:06;;;;;;;4.22;1.70;;;;;;;;;;5157685;27;20061;-78
2023/06/14 12:56:32;;;;;;;3.17;1.83;;;;;;;;;;5139132;27;20382;-77
2023/06/14 12:58:59;;;;;;;3.30;1.55;;;;;;;;;;5139029;27;20100;-77
2023/06/14 13:01:25;;;;;;;5.68;1.75;;;;;;;;;;5154782;27;20102;-77
2023/06/14 13:03:53;;;;;;;8.48;1.70;;;;;;;;;;5138884;27;20043;-77
2023/06/14 13:06:22;;;;;;;6.28;1.80;;;;;;;;;;5139146;27;20058;-77
2023/06/14 13:08:48;;;;;;;8.85;2.00;;;;;;;;;;5156963;27;20099;-77
2023/06/14 13:11:15;;;;;;;5.60;1.80;;;;;;;;;;5157514;27;20055;-76
2023/06/14 13:13:41;;;;;;;5.72;1.98;;;;;;;;;;5155796;27;20043;-76
2023/06/14 13:16:08;;;;;;;2.85;1.90;;;;;;;;;;5155007;27;20038;-76
2023/06/14 13:18:34;;;;;;;5.07;1.83;;;;;;;;;;5156120;27;20039;-76
2023/06/14 13:21:01;;;;;;;2.65;1.70;;;;;;;;;;5156937;27;20200;-76
2023/06/14 13:23:27;;;;;;;4.05;1.80;;;;;;;;;;5150305;27;20399;-77
2023/06/14 13:25:53;;;;;;;4.32;1.90;;;;;;;;;;5117926;27;20046;-77
2023/06/14 13:28:20;;;;;;;4.25;2.00;;;;;;;;;;5120079;27;20043;-78
2023/06/14 13:30:46;;;;;;;4.90;1.90;;;;;;;;;;5138530;27;20081;-77
2023/06/14 13:33:13;;;;;;;3.65;1.73;;;;;;;;;;5156887;27;20452;-77
2023/06/14 13:35:40;;;;;;;4.30;1.92;;;;;;;;;;5157047;27;20039;-77
2023/06/14 13:38:06;;;;;;;4.80;2.00;;;;;;;;;;5138354;27;20047;-78
2023/06/14 13:40:32;;;;;;;3.58;1.80;;;;;;;;;;5138011;27;20039;-77
2023/06/14 13:42:58;;;;;;;3.88;1.90;;;;;;;;;;5156582;27;20506;-78
2023/06/14 13:45:24;;;;;;;5.70;2.10;;;;;;;;;;5156548;27;20129;-77
2023/06/14 13:47:51;;;;;;;5.78;1.92;;;;;;;;;;5156856;27;20400;-77
2023/06/14 13:50:17;;;;;;;3.42;2.00;;;;;;;;;;5155168;27;20542;-77
2023/06/14 13:52:43;;;;;;;5.80;2.00;;;;;;;;;;5155602;27;20043;-78
2023/06/14 13:55:09;;;;;;;4.90;1.90;;;;;;;;;;5138003;27;20047;-78
2023/06/14 13:57:35;;;;;;;3.72;1.80;;;;;;;;;;5156561;27;20126;-77
2023/06/14 14:00:03;;;;;;;5.22;1.90;;;;;;;;;;5155953;27;20152;-77
2023/06/14 14:02:30;;;;;;;4.72;1.70;;;;;;;;;;5137895;27;20050;-76
2023/06/14 14:04:57;;;;;;;5.38;1.95;;;;;;;;;;5156112;27;20070;-76
2023/06/14 14:07:23;;;;;;;4.40;1.85;;;;;;;;;;5156489;27;20062;-76
2023/06/14 14:09:49;;;;;;;4.03;1.90;;;;;;;;;;5155991;27;20049;-77
2023/06/14 14:12:16;;;;;;;5.18;1.90;;;;;;;;;;5137629;27;20035;-77
2023/06/14 14:14:42;;;;;;;4.88;1.95;;;;;;;;;;5137854;27;20087;-77
2023/06/14 14:17:08;;;;;;;4.18;1.90;;;;;;;;;;5137451;27;20035;-77
2023/06/14 14:19:34;;;;;;;5.75;1.83;;;;;;;;;;5156051;27;20042;-78
2023/06/14 14:22:01;;;;;;;4.22;1.95;;;;;;;;;;5156077;27;20121;-77
2023/06/14 14:24:27;;;;;;;3.97;1.88;;;;;;;;;;5119946;27;20061;-77
2023/06/14 14:26:53;;;;;;;4.68;2.00;;;;;;;;;;5156033;27;20042;-78
2023/06/14 14:29:19;;;;;;;2.90;1.90;;;;;;;;;;5155512;27;20045;-76
2023/06/14 14:31:46;;;;;;;6.95;2.00;;;;;;;;;;5155860;27;20043;-77
2023/06/14 14:34:12;;;;;;;5.05;1.88;;;;;;;;;;5136787;27;20082;-77
2023/06/14 14:36:42;;;;;;;3.75;1.90;;;;;;;;;;5137216;27;20045;-77
2023/06/14 14:39:08;;;;;;;6.53;2.00;;;;;;;;;;5155159;27;20182;-77
2023/06/14 14:41:34;;;;;;;3.30;1.83;;;;;;;;;;5136687;27;20122;-77
2023/06/14 14:44:00;;;;;;;3.92;2.10;;;;;;;;;;5154985;27;20443;-77